x

Sabine Pass, Tx (srst2) Weather Station

6:00am - Mon 16th Jan 2017 All times are CST. -6 hours from GMT.

  • Wind
    7mph, 8mph gusts
  • Air Temp 64°f
  • Sea Pressure 1017mb
  • Sabine Pass, Tx
  • Sabine Pass, Tx

More Historic Weather Station data

Upgrade to MSW Pro to gain access to the past 30 days of data for over 8000 Wavebouys and Weather Stations around the globe.

Join Pro

Comparision Forecast

View Surf forecast
   
Mon 01/16 6:00am 7 8 mph 1017mb 64f
5:00am 5
mph
1016.4mb 62f
4:00am 9 11 mph 1015.8mb 62f
3:00am 13 15 mph 1015.2mb 62f
2:00am 15 17 mph 1015.8mb 62f
1:00am 14 17 mph 1016.7mb 61f
12:00am 11 15 mph 1017.5mb 62f
Sun 01/15 11:00pm 10 14 mph 1017.9mb 62f
10:00pm 14 16 mph 1017.3mb 62f
9:00pm 11 15 mph 1017.1mb 62f
8:00pm 14 17 mph 1016.8mb 62f
7:00pm 14 17 mph 1017mb 62f
6:00pm 14 16 mph 1017.6mb 62f
5:00pm 13 16 mph 1017.8mb 62f
4:00pm 15 17 mph 1018mb 63f
3:00pm 15 18 mph 1018.6mb 62f
2:00pm 15 20 mph 1019.2mb 61f
1:00pm 14 17 mph 1020.4mb 62f
12:00pm 13 15 mph 1021.8mb 62f
11:00am 14 17 mph 1023mb 62f
10:00am 14 16 mph 1023.4mb 62f
9:00am 11 15 mph 1023.3mb 62f
8:00am 13 16 mph 1022.6mb 62f
7:00am 10 13 mph 1022.5mb 61f
6:00am 11 14 mph 1022.5mb 61f
5:00am 13 16 mph 1022.6mb 62f
4:00am 13 15 mph 1022.8mb 62f
3:00am 14 16 mph 1023.2mb 62f
2:00am 11 15 mph 1023.9mb 62f
1:00am 9 11 mph 1024.3mb 62f
12:00am 8 11 mph 1025mb 62f
Sat 01/14 11:00pm 15 20 mph 1025.6mb 63f
10:00pm 14 16 mph 1026.3mb 63f
9:00pm 11 14 mph 1026.4mb 62f
8:00pm 9 13 mph 1026.6mb 62f
7:00pm 7 8 mph 1026.8mb 62f
6:00pm 7 8 mph 1026.4mb 61f
5:00pm 9 11 mph 1026.5mb 62f
4:00pm 13 15 mph 1026.5mb 65f
3:00pm 9 11 mph 1026.4mb 65f
2:00pm 10 11 mph 1026.9mb 62f
1:00pm 13 14 mph 1027.5mb 62f
12:00pm 14 18 mph 1028.6mb 63f
11:00am 14 16 mph 1029.5mb 63f
10:00am 13 15 mph 1030mb 62f
9:00am 11 14 mph 1029.7mb 62f
8:00am 10 14 mph 1029.5mb 62f
7:00am 8 9 mph 1029.1mb 62f
6:00am 7 9 mph 1028.6mb 61f
5:00am 9 10 mph 1028.3mb 62f
4:00am 9 11 mph 1028.4mb 62f
3:00am 9 10 mph 1028.3mb 61f
2:00am 8 10 mph 1028.5mb 61f
1:00am 9 11 mph 1028.4mb 62f
12:00am 9 11 mph 1028.6mb 61f
Fri 01/13 11:00pm 11 16 mph 1028.8mb 62f
10:00pm 8 11 mph 1029mb 62f
9:00pm 10 15 mph 1028.7mb 62f
8:00pm 11 13 mph 1028.5mb 62f
7:00pm 10 13 mph 1028.2mb 62f
6:00pm 11 14 mph 1027.9mb 62f
5:00pm 11 15 mph 1027.9mb 63f
4:00pm 14 18 mph 1027.7mb 65f
3:00pm 15 18 mph 1027.5mb 67f
2:00pm 14 16 mph 1027.3mb 65f
1:00pm 14 18 mph 1027.6mb 63f
12:00pm 14 15 mph 1028.6mb 62f
11:00am 11 15 mph 1029.3mb 63f
10:00am 11 16 mph 1029.4mb 62f
9:00am 11 15 mph 1028.3mb 61f
8:00am 9 11 mph 1027.3mb 60f
7:00am 8 9 mph 1026.4mb 60f
6:00am 10 13 mph 1025.8mb 61f
5:00am 10 11 mph 1025.2mb 62f
4:00am 11 13 mph 1024.8mb 61f
3:00am 11 14 mph 1024.8mb 62f
2:00am 9 11 mph 1024.9mb 62f
1:00am 8 11 mph 1024.5mb 61f
12:00am 9 11 mph 1024.3mb 61f
Thu 01/12 11:00pm 10 11 mph 1024.2mb 61f
10:00pm 9 13 mph 1024.1mb 61f
9:00pm 10 13 mph 1023.9mb 61f
8:00pm 10 13 mph 1023.5mb 62f
7:00pm 9 13 mph 1023mb 63f
6:00pm 9 11 mph 1022.4mb 64f
5:00pm 9 13 mph 1022.1mb 64f
4:00pm 11 15 mph 1021.9mb 66f
3:00pm 11 13 mph 1021.6mb 67f
2:00pm 10 14 mph 1021.6mb 69f